Aviation Digital Data Service (ADDS)

Output produced by METARs form (1739 UTC 22 December 2014)
found at http://www.aviationweather.gov/adds/metars/
 
METAR text: KCMI 221734Z 12012KT 1 3/4SM -RA BR OVC005 03/02 A2976 RMK AO2 TWR VIS 3 P0003 T00330022
Conditions at: KCMI (CHAMPAIGN/URBANA, IL, US) observed 1734 UTC 22 December 2014
Temperature: 3.3°C (38°F)
Dewpoint: 2.2°C (36°F) [RH = 92%]
Pressure (altimeter): 29.76 inches Hg (1007.9 mb)
Winds: from the ESE (120 degrees) at 14 MPH (12 knots; 6.2 m/s)
Visibility: 1.75 miles (2.82 km)
Ceiling: 500 feet AGL
Clouds: overcast cloud deck at 500 feet AGL
Weather: -RA BR  (light rain, mist)

METAR text: KCMI 221711Z 13013KT 2SM -RA BR BKN006 OVC015 03/02 A2978 RMK AO2 TWR VIS 3 P0001 T00280017
Conditions at: KCMI (CHAMPAIGN/URBANA, IL, US) observed 1711 UTC 22 December 2014
Temperature: 2.8°C (37°F)
Dewpoint: 1.7°C (35°F) [RH = 92%]
Pressure (altimeter): 29.78 inches Hg (1008.5 mb)
Winds: from the SE (130 degrees) at 15 MPH (13 knots; 6.8 m/s)
Visibility: 2.00 miles (3.22 km)
Ceiling: 600 feet AGL
Clouds: broken clouds at 600 feet AGL
overcast cloud deck at 1500 feet AGL
Weather: -RA BR  (light rain, mist)

METAR text: KCMI 221653Z 13015KT 2 1/2SM -RA BR FEW006 OVC016 03/02 A2980 RMK AO2 TWR VIS 3 SLP096 P0001 T00280017
Conditions at: KCMI (CHAMPAIGN/URBANA, IL, US) observed 1653 UTC 22 December 2014
Temperature: 2.8°C (37°F)
Dewpoint: 1.7°C (35°F) [RH = 92%]
Pressure (altimeter): 29.80 inches Hg (1009.2 mb)
[Sea-level pressure: 1009.6 mb]
Winds: from the SE (130 degrees) at 17 MPH (15 knots; 7.8 m/s)
Visibility: 2.50 miles (4.02 km)
Ceiling: 1600 feet AGL
Clouds: few clouds at 600 feet AGL
overcast cloud deck at 1600 feet AGL
Weather: -RA BR  (light rain, mist)

METAR text: KCMI 221640Z 12013KT 2 1/2SM -RA BR BKN018 OVC046 03/02 A2981 RMK AO2 TWR VIS 3 P0000 T00280017
Conditions at: KCMI (CHAMPAIGN/URBANA, IL, US) observed 1640 UTC 22 December 2014
Temperature: 2.8°C (37°F)
Dewpoint: 1.7°C (35°F) [RH = 92%]
Pressure (altimeter): 29.81 inches Hg (1009.6 mb)
Winds: from the ESE (120 degrees) at 15 MPH (13 knots; 6.8 m/s)
Visibility: 2.50 miles (4.02 km)
Ceiling: 1800 feet AGL
Clouds: broken clouds at 1800 feet AGL
overcast cloud deck at 4600 feet AGL
Weather: -RA BR  (light rain, mist)

METAR text: KCMI 221553Z 12015KT 3SM -RA BR BKN055 OVC070 02/01 A2983 RMK AO2 SFC VIS 3 SLP108 P0004 T00170006
Conditions at: KCMI (CHAMPAIGN/URBANA, IL, US) observed 1553 UTC 22 December 2014
Temperature: 1.7°C (35°F)
Dewpoint: 0.6°C (33°F) [RH = 92%]
Pressure (altimeter): 29.83 inches Hg (1010.2 mb)
[Sea-level pressure: 1010.8 mb]
Winds: from the ESE (120 degrees) at 17 MPH (15 knots; 7.8 m/s)
Visibility: 3 miles (5 km)
Ceiling: 5500 feet AGL
Clouds: broken clouds at 5500 feet AGL
overcast cloud deck at 7000 feet AGL
Weather: -RA BR  (light rain, mist)

Forecast for: KCMI (CHAMPAIGN/URBANA, IL, US)
Text: KCMI 221618Z 2216/2312 12014KT 3SM -RA BR SCT007 OVC035
Forecast period: 1600 to 1800 UTC 22 December 2014
Forecast type: FROM: standard forecast or significant change
Winds: from the ESE (120 degrees) at 16 MPH (14 knots; 7.3 m/s)
Visibility: 3 miles (5 km)
Ceiling: 3500 feet AGL
Clouds: scattered clouds at 700 feet AGL
overcast cloud deck at 3500 feet AGL
Weather: -RA BR  (light rain, mist)
Text: FM221800 12015G19KT 1 1/2SM -RA BR OVC008
Forecast period: 1800 UTC 22 December 2014 to 0400 UTC 23 December 2014
Forecast type: FROM: standard forecast or significant change
Winds: from the ESE (120 degrees) at 17 MPH (15 knots; 7.8 m/s)
gusting to 22 MPH (19 knots; 9.9 m/s)
Visibility: 1.50 miles (2.41 km)
Ceiling: 800 feet AGL
Clouds: overcast cloud deck at 800 feet AGL
Weather: -RA BR  (light rain, mist)
Text: FM230400 12014KT 2SM -RA BR OVC004
Forecast period: 0400 to 1200 UTC 23 December 2014
Forecast type: FROM: standard forecast or significant change
Winds: from the ESE (120 degrees) at 16 MPH (14 knots; 7.3 m/s)
Visibility: 2.00 miles (3.22 km)
Ceiling: 400 feet AGL
Clouds: overcast cloud deck at 400 feet AGL
Weather: -RA BR  (light rain, mist)